WADDWARR

Guest
Details From WADD - Denpasar Ngurah Rai Intl
To WARR - Surabaya Juanda
Flight Number -
Tags decoded
Created
Modified
Stats Distance 164 nm / 303 km
Max Altitude 0 ft / 0 m
Waypoints 3
Social Downloads 0
Likes 0
Share VATSIM

Download

Looking for another format? Having issues loading an existing format? Contact us
Advertisement - Login to hide

Notes

Requested: WADD RABO3C RABOL NIMAS WARR Unmatched points: RABO3C

Route

WADD RABOL WARR

ID Type Via Altitude Latitude Longitude Leg Dist Tot Dist Heading (true) Name
O WADD APT - 0 ft / 0 m -8.74817˚ 115.16717˚ - 0 nm - Denpasar Ngurah Rai Intl
RABOL FIX - 0 ft / 0 m -8.02142˚ 113.89569˚ 87 nm 87 nm 300° / 300° -
O WARR APT - 0 ft / 0 m -7.37983˚ 112.78686˚ 76 nm 163 nm 300° / 300° Surabaya Juanda

Altitude Profile

Advertisement - Login to hide

Weather


0- 5 10 15 20 25 30 35+ Temperature / ° C

Clouds and Precipitation
Forecast for 2017-12-15 12:00 UTC. Updated an hour ago

Ground ~20,000 ft ~40,000 ft Winds

WADD

Details ICAO WADD (DPS)
Name Denpasar Ngurah Rai Intl
Region Indonesia
Timezone Asia/Makassar (UTC+8.0)
Stats Elevation 14 ft / 4 m (AMSL)
Location -8.748169° 115.167174°
Runways 1
Magnetic Variation 1.055° E

METAR

WADD 151000Z 25006KT 210V280 9999 FEW017 29/25 Q1008 NOSIG

Decode

TAF

TAF WADD 150500Z 1506/1606 27010KT 9999 SCT016 TEMPO 1506/1510 FEW015CB SCT015 BECMG 1514/1516 VRB05KT TEMPO 1520/1600 5000 RA BKN015

Decode

Departure Runways

ID Width Length Bearing (true) Bearing (mag) Surface Threshold Offset Overrun Length
09 148 ft / 45 m 9,779 ft / 2,981 m 87.71° 86.65° Asphalt 121 ft / 37 m 75 ft / 23 m
27 148 ft / 45 m 9,779 ft / 2,981 m 267.70° 266.64° Asphalt 0 ft / 0 m 197 ft / 60 m

WARR

Details ICAO WARR (SUB)
Name Surabaya Juanda
Region Indonesia
Timezone Asia/Jakarta (UTC+7.0)
Stats Elevation 9 ft / 3 m (AMSL)
Location -7.379832° 112.786858°
Runways 1
Magnetic Variation 0.952° E

METAR

WARR 150900Z 31009KT 280V010 9999 FEW018CB SCT020 31/25 Q1006 NOSIG

Decode

TAF

TAF WARR 150500Z 1506/1606 06010KT 9999 SCT020 TEMPO 1508/1512 30010KT 4000 TSRA SCT018CB BECMG 1512/1514 26005KT 7000 FEW020 TEMPO 1520/1600 4000 BR BECMG 1601/1603 08010KT 9999 SCT020

Decode

Destination Runways

ID Width Length Bearing (true) Bearing (mag) Surface Threshold Offset Overrun Length
10 148 ft / 45 m 9,836 ft / 2,998 m 99.32° 98.37° Asphalt 0 ft / 0 m 328 ft / 100 m
28 148 ft / 45 m 9,836 ft / 2,998 m 279.32° 278.37° Asphalt 0 ft / 0 m 328 ft / 100 m

Approach Navaids

Runway Type Ident Frequency Range Bearing (true) Bearing (mag) Slope Elevation
10 Localiser ISBY 110.10 MHz 18 nm / 33 km 99.30° 98.34° - 8 ft / 2 m (AMSL)
10 Glidescope ISBY 110.10 MHz 10 nm / 19 km 99.32° 98.36° 3.00° 9 ft / 3 m (AMSL)
10 DME ISBY 110.10 MHz 18 nm / 33 km - - - 8 ft / 2 m (AMSL)

Popular Alternatives